Time;durP1;ratioP1;P1;durP2;ratioP2;P2;SDS_P1;SDS_P2;PMS_P1;PMS_P2;Temp;Humidity;BMP_temperature;BMP_pressure;BME280_temperature;BME280_humidity;BME280_pressure;Samples;Min_cycle;Max_cycle;Signal;HPM_P1;HPM_P2
2020/12/19 04:02:53;;;;;;;18.73;11.63;;;2.60;99.90;;;;;;5193991;23;94370;-81
2020/12/19 04:05:19;;;;;;;19.95;12.80;;;2.60;99.90;;;;;;4939674;28;92062;-79
2020/12/19 04:07:45;;;;;;;21.50;11.07;;;2.70;99.90;;;;;;4958797;28;92144;-79
2020/12/19 04:10:10;;;;;;;21.33;12.27;;;2.60;99.90;;;;;;4958894;28;91855;-79
2020/12/19 04:12:36;;;;;;;19.77;11.48;;;2.60;99.90;;;;;;4946576;28;91565;-79
2020/12/19 04:15:07;;;;;;;18.75;11.32;;;2.60;99.90;;;;;;4940303;28;92380;-81
2020/12/19 04:17:33;;;;;;;17.00;11.02;;;2.60;99.90;;;;;;4940763;28;91231;-80
2020/12/19 04:19:58;;;;;;;17.75;10.73;;;2.50;99.90;;;;;;4956825;28;92174;-80
2020/12/19 04:22:24;;;;;;;17.70;10.95;;;2.50;99.90;;;;;;4938389;28;92939;-80
2020/12/19 04:24:50;;;;;;;21.02;10.68;;;2.50;99.90;;;;;;4934672;28;94334;-81
2020/12/19 04:27:16;;;;;;;20.98;11.35;;;2.50;99.90;;;;;;4944393;28;91639;-78
2020/12/19 04:29:41;;;;;;;20.15;11.40;;;2.50;99.90;;;;;;4944715;28;92022;-79
2020/12/19 04:32:07;;;;;;;21.15;12.40;;;2.40;99.90;;;;;;4931765;28;92363;-78
2020/12/19 04:34:33;;;;;;;21.42;11.50;;;2.40;99.90;;;;;;4944125;28;91893;-79
2020/12/19 04:36:59;;;;;;;23.98;11.93;;;2.30;99.90;;;;;;4942089;28;92034;-81
2020/12/19 04:39:24;;;;;;;18.63;11.23;;;2.20;99.90;;;;;;4927814;28;91140;-81
2020/12/19 04:41:50;;;;;;;24.38;10.48;;;2.20;99.90;;;;;;4943188;28;91732;-80
2020/12/19 04:44:17;;;;;;;16.23;10.00;;;2.20;99.90;;;;;;4944030;28;91830;-81
2020/12/19 04:46:43;;;;;;;18.30;10.88;;;2.20;99.90;;;;;;4942563;28;92812;-80
2020/12/19 04:49:10;;;;;;;20.30;11.10;;;2.20;99.90;;;;;;4937555;28;91838;-81
2020/12/19 04:51:37;;;;;;;21.30;11.63;;;2.20;99.90;;;;;;4932327;28;92141;-78
2020/12/19 04:54:04;;;;;;;22.67;12.02;;;2.20;99.90;;;;;;4937725;28;92438;-81
2020/12/19 04:56:30;;;;;;;21.90;11.35;;;2.20;99.90;;;;;;4944480;28;91848;-80
2020/12/19 04:58:57;;;;;;;30.00;12.65;;;2.20;99.90;;;;;;4943272;28;91971;-80
2020/12/19 05:01:23;;;;;;;20.65;11.50;;;2.20;99.90;;;;;;4942296;28;93481;-81
2020/12/19 05:03:53;;;;;;;41.42;12.35;;;2.30;99.90;;;;;;4923210;28;92150;-80
2020/12/19 05:06:24;;;;;;;29.50;12.60;;;2.40;99.90;;;;;;4940067;28;92060;-81
2020/12/19 05:08:50;;;;;;;;;;;2.40;99.90;;;;;;4940394;28;91741;-80
2020/12/19 05:11:18;;;;;;;18.50;10.77;;;2.30;99.90;;;;;;4940793;28;93325;-78
2020/12/19 05:13:44;;;;;;;18.05;10.10;;;2.30;99.90;;;;;;4932677;28;93421;-78
2020/12/19 05:16:12;;;;;;;15.25;10.30;;;2.20;99.90;;;;;;4935170;28;92010;-78
2020/12/19 05:18:38;;;;;;;23.73;10.35;;;2.10;99.90;;;;;;4944226;28;92153;-80
2020/12/19 05:21:05;;;;;;;25.33;12.00;;;2.20;99.90;;;;;;4942345;28;92102;-80
2020/12/19 05:23:35;;;;;;;25.90;11.00;;;2.30;99.90;;;;;;4946344;28;93146;-80
2020/12/19 05:26:06;;;;;;;22.52;10.07;;;2.30;99.90;;;;;;4933181;28;92020;-78
2020/12/19 05:28:33;;;;;;;21.77;9.65;;;2.30;99.90;;;;;;4943395;28;91197;-78
2020/12/19 05:30:59;;;;;;;33.70;10.30;;;2.40;99.90;;;;;;4944192;28;92664;-81
2020/12/19 05:33:35;;;;;;;20.45;10.00;;;2.40;99.90;;;;;;4934774;28;92139;-81
2020/12/19 05:36:05;;;;;;;20.52;10.25;;;2.50;99.90;;;;;;4942317;28;93028;-82
2020/12/19 05:38:37;;;;;;;21.45;11.57;;;2.60;99.90;;;;;;4939512;28;91892;-81
2020/12/19 05:41:04;;;;;;;14.13;8.57;;;2.60;99.90;;;;;;4931001;28;92728;-81
2020/12/19 05:43:29;;;;;;;18.27;10.07;;;2.60;99.90;;;;;;4936710;28;92049;-81
2020/12/19 05:45:55;;;;;;;20.67;10.43;;;2.50;99.90;;;;;;4943898;28;92068;-81
2020/12/19 05:48:21;;;;;;;15.13;8.80;;;2.60;99.90;;;;;;4935588;28;92113;-80
2020/12/19 05:50:47;;;;;;;20.23;9.63;;;2.60;99.90;;;;;;4935979;28;92095;-79
2020/12/19 05:53:14;;;;;;;22.45;10.30;;;2.60;99.90;;;;;;4936507;28;91355;-81
2020/12/19 05:55:40;;;;;;;19.48;8.85;;;2.70;99.90;;;;;;4937731;28;92010;-81
2020/12/19 05:58:07;;;;;;;22.00;10.10;;;2.60;99.90;;;;;;4940999;28;91994;-81
2020/12/19 06:00:33;;;;;;;17.55;9.43;;;2.70;99.90;;;;;;4927806;28;94474;-81
2020/12/19 06:03:05;;;;;;;13.55;8.75;;;2.70;99.90;;;;;;4933754;28;92369;-80
2020/12/19 06:05:31;;;;;;;;;;;2.70;99.90;;;;;;4930323;28;91259;-82
2020/12/19 06:07:58;;;;;;;24.90;11.45;;;2.60;99.90;;;;;;4944896;28;92459;-81
2020/12/19 06:10:25;;;;;;;38.38;12.85;;;2.60;99.90;;;;;;4928759;28;92276;-81
2020/12/19 06:12:52;;;;;;;13.90;9.20;;;2.60;99.90;;;;;;4936027;28;92461;-80
2020/12/19 06:15:51;;;;;;;23.17;10.55;;;2.60;99.90;;;;;;4931879;28;92033;-80
2020/12/19 06:18:48;;;;;;;27.25;12.60;;;2.50;99.90;;;;;;4936466;28;91331;-82
2020/12/19 06:21:15;;;;;;;18.40;10.48;;;2.50;99.90;;;;;;4939127;28;91964;-81
2020/12/19 06:23:41;;;;;;;23.05;11.52;;;2.60;99.90;;;;;;4933302;28;92012;-81
2020/12/19 06:26:08;;;;;;;26.45;11.70;;;2.60;99.90;;;;;;4926353;28;92865;-81
2020/12/19 06:28:40;;;;;;;18.00;10.27;;;2.60;99.90;;;;;;4928132;28;91965;-82
2020/12/19 06:31:08;;;;;;;25.92;10.05;;;2.60;99.90;;;;;;4939473;28;92220;-81
2020/12/19 06:33:39;;;;;;;38.75;11.70;;;2.50;99.90;;;;;;4934810;28;92170;-82
2020/12/19 06:36:16;;;;;;;26.40;10.20;;;2.60;99.90;;;;;;4941346;28;92170;-80
2020/12/19 06:38:49;;;;;;;20.33;9.27;;;2.60;99.90;;;;;;4935447;28;91658;-79
2020/12/19 06:41:55;;;;;;;16.02;9.40;;;2.60;99.90;;;;;;4943266;28;91998;-81
2020/12/19 06:44:29;;;;;;;21.92;10.98;;;2.70;99.90;;;;;;4858843;28;92667;-82
2020/12/19 06:46:57;;;;;;;40.38;15.73;;;2.70;99.90;;;;;;4930599;28;91959;-81
2020/12/19 06:49:22;;;;;;;45.63;12.95;;;2.60;99.90;;;;;;4931435;28;92269;-82
2020/12/19 06:52:10;;;;;;;25.40;10.90;;;2.60;99.90;;;;;;4941568;28;93603;-79
2020/12/19 06:54:47;;;;;;;23.52;11.23;;;2.70;99.90;;;;;;4933703;28;93110;-81
2020/12/19 06:57:33;;;;;;;30.05;10.25;;;2.70;99.90;;;;;;4941878;28;92095;-84
2020/12/19 07:00:35;;;;;;;15.63;8.95;;;2.70;99.90;;;;;;4932410;28;91863;-84
2020/12/19 07:03:04;;;;;;;26.80;10.48;;;2.70;99.90;;;;;;4880385;28;95435;-84
2020/12/19 07:05:32;;;;;;;19.77;9.55;;;2.70;99.90;;;;;;4929006;28;92648;-83
2020/12/19 07:08:20;;;;;;;29.05;11.38;;;2.80;99.90;;;;;;4940258;28;91709;-82
2020/12/19 07:10:47;;;;;;;21.52;10.60;;;2.80;99.90;;;;;;4944475;28;91209;-81
2020/12/19 07:13:13;;;;;;;21.40;10.90;;;2.80;99.90;;;;;;4938632;28;92060;-84
2020/12/19 07:15:49;;;;;;;16.33;10.52;;;2.80;99.90;;;;;;4945253;28;91699;-83
2020/12/19 07:18:27;;;;;;;25.98;11.55;;;2.80;99.90;;;;;;4942958;28;92933;-84
2020/12/19 07:21:19;;;;;;;27.30;11.93;;;2.90;99.90;;;;;;4939269;28;91762;-84
2020/12/19 07:23:44;;;;;;;24.90;11.20;;;2.90;99.90;;;;;;4934641;28;91708;-84
2020/12/19 07:26:10;;;;;;;26.45;12.77;;;2.90;99.90;;;;;;4933507;28;91976;-83
2020/12/19 07:28:36;;;;;;;34.40;13.20;;;3.00;99.90;;;;;;4941680;28;92044;-80
2020/12/19 07:31:02;;;;;;;51.00;15.02;;;3.00;99.90;;;;;;4934164;28;91891;-79
2020/12/19 07:33:27;;;;;;;41.38;12.75;;;3.00;99.90;;;;;;4936210;28;92931;-82
2020/12/19 07:35:56;;;;;;;38.75;12.43;;;3.00;99.90;;;;;;4940332;28;92356;-80
2020/12/19 07:38:22;;;;;;;27.80;11.88;;;3.10;99.90;;;;;;4951421;28;91472;-80
2020/12/19 07:40:57;;;;;;;33.20;12.55;;;3.10;99.90;;;;;;4932935;28;92040;-80
2020/12/19 07:43:24;;;;;;;18.52;10.73;;;3.20;99.90;;;;;;4948047;28;93220;-80
2020/12/19 07:45:56;;;;;;;25.33;12.20;;;3.20;99.90;;;;;;4934108;28;93584;-80
2020/12/19 07:48:22;;;;;;;31.92;12.43;;;3.20;99.90;;;;;;4934828;28;92300;-79
2020/12/19 07:50:47;;;;;;;33.25;11.23;;;3.20;99.90;;;;;;4938307;28;92100;-80
2020/12/19 07:53:13;;;;;;;34.05;12.18;;;3.30;99.90;;;;;;4927774;28;92312;-79
2020/12/19 07:55:49;;;;;;;30.58;11.07;;;3.30;99.90;;;;;;4932894;28;91877;-82
2020/12/19 07:58:16;;;;;;;23.02;11.55;;;3.30;99.90;;;;;;4919811;28;91886;-80
2020/12/19 08:00:42;;;;;;;43.05;12.38;;;3.30;99.90;;;;;;4935171;28;91215;-81
2020/12/19 08:03:12;;;;;;;36.97;12.45;;;3.30;99.90;;;;;;4937153;28;92387;-78
2020/12/19 08:05:38;;;;;;;28.42;12.35;;;3.30;99.90;;;;;;4938943;28;93134;-80
2020/12/19 08:08:03;;;;;;;19.58;10.95;;;3.30;99.90;;;;;;4942752;28;92824;-78
2020/12/19 08:10:29;;;;;;;24.70;11.43;;;3.30;99.90;;;;;;4951007;28;91348;-78
2020/12/19 08:12:55;;;;;;;30.77;11.63;;;3.30;99.90;;;;;;4936513;28;94614;-78
2020/12/19 08:15:23;;;;;;;20.85;10.25;;;3.40;99.90;;;;;;4946047;28;91972;-80
2020/12/19 08:17:57;;;;;;;25.63;11.00;;;3.50;99.90;;;;;;4945946;28;91794;-79
2020/12/19 08:20:29;;;;;;;24.15;10.75;;;3.50;99.90;;;;;;4945842;28;91351;-79
2020/12/19 08:22:59;;;;;;;13.95;8.73;;;3.40;99.90;;;;;;4948613;28;92400;-80
2020/12/19 08:25:25;;;;;;;16.75;8.80;;;3.40;99.90;;;;;;4931049;28;92967;-79
2020/12/19 08:28:31;;;;;;;14.98;9.57;;;3.20;99.90;;;;;;4953883;28;92188;-79
2020/12/19 08:30:57;;;;;;;16.13;9.65;;;3.20;99.90;;;;;;4960549;28;92191;-80
2020/12/19 08:33:26;;;;;;;13.02;7.88;;;3.20;99.90;;;;;;4950572;28;92946;-80
2020/12/19 08:35:52;;;;;;;13.80;9.13;;;3.20;99.90;;;;;;4933716;28;93406;-77
2020/12/19 08:38:26;;;;;;;18.50;9.93;;;3.10;99.90;;;;;;4942307;28;91884;-80
2020/12/19 08:40:56;;;;;;;13.73;8.32;;;3.00;99.90;;;;;;4944220;28;91793;-79
2020/12/19 08:43:30;;;;;;;15.50;9.48;;;3.00;99.90;;;;;;4932086;28;93182;-80
2020/12/19 08:46:07;;;;;;;27.55;10.05;;;2.90;99.90;;;;;;4938584;28;91991;-79
2020/12/19 08:48:34;;;;;;;16.23;10.00;;;3.00;99.90;;;;;;4940262;28;91639;-76
2020/12/19 08:51:14;;;;;;;22.67;11.10;;;3.00;99.90;;;;;;4923521;28;91410;-78
2020/12/19 08:53:40;;;;;;;19.02;10.90;;;2.90;99.90;;;;;;4922111;28;92846;-79
2020/12/19 08:56:17;;;;;;;17.67;11.23;;;2.90;99.90;;;;;;4940526;28;92514;-79
2020/12/19 08:58:52;;;;;;;18.25;10.30;;;2.80;99.90;;;;;;4929861;28;92919;-80
2020/12/19 09:01:18;;;;;;;20.90;10.68;;;2.90;99.90;;;;;;4942773;28;92357;-77
2020/12/19 09:03:44;;;;;;;25.90;12.23;;;2.90;99.90;;;;;;4943972;28;91897;-77
2020/12/19 09:06:14;;;;;;;22.23;11.98;;;3.00;99.90;;;;;;4943341;28;92054;-78
2020/12/19 09:08:42;;;;;;;20.45;10.80;;;2.90;99.90;;;;;;4938217;28;91960;-78
2020/12/19 09:11:25;;;;;;;17.85;9.40;;;2.90;99.90;;;;;;4943814;28;91965;-80
2020/12/19 09:14:08;;;;;;;16.67;10.50;;;2.90;99.90;;;;;;4935930;28;92292;-78
2020/12/19 09:16:34;;;;;;;17.48;10.70;;;2.90;99.90;;;;;;4936806;28;92170;-79
2020/12/19 09:19:00;;;;;;;18.50;11.13;;;2.90;99.90;;;;;;4940095;28;92045;-79
2020/12/19 09:21:26;;;;;;;22.88;11.23;;;2.90;99.90;;;;;;4943408;28;91878;-77
2020/12/19 09:23:51;;;;;;;24.20;12.15;;;3.00;99.90;;;;;;4939642;28;92549;-78
2020/12/19 09:26:17;;;;;;;22.33;11.68;;;3.10;99.90;;;;;;4926030;28;92178;-79
2020/12/19 09:28:43;;;;;;;24.20;12.10;;;3.10;99.90;;;;;;4933988;28;92127;-78
2020/12/19 09:31:08;;;;;;;25.50;12.85;;;3.20;99.90;;;;;;4936164;28;92156;-77
2020/12/19 09:33:34;;;;;;;25.92;12.77;;;3.30;99.90;;;;;;4934797;28;92198;-78
2020/12/19 09:36:00;;;;;;;16.98;10.45;;;3.40;99.90;;;;;;4929405;28;92009;-78
2020/12/19 09:38:26;;;;;;;20.23;11.40;;;3.40;99.90;;;;;;4938346;28;92020;-77
2020/12/19 09:40:51;;;;;;;19.08;11.80;;;3.50;99.90;;;;;;4935245;28;92205;-78
2020/12/19 09:43:17;;;;;;;19.83;11.68;;;3.70;99.90;;;;;;4930668;28;92182;-77
2020/12/19 09:45:43;;;;;;;20.60;11.43;;;3.80;99.90;;;;;;4934115;28;92045;-78
2020/12/19 09:48:09;;;;;;;20.80;11.50;;;3.80;99.90;;;;;;4939251;28;93005;-79
2020/12/19 09:50:35;;;;;;;21.02;10.73;;;3.80;99.90;;;;;;4940971;28;92210;-79
2020/12/19 09:53:01;;;;;;;25.58;12.43;;;3.80;99.90;;;;;;4931031;28;92587;-80
2020/12/19 09:55:31;;;;;;;24.15;11.38;;;3.70;99.90;;;;;;4925178;28;93208;-79
2020/12/19 09:57:57;;;;;;;23.70;12.15;;;3.80;99.90;;;;;;4936546;28;91320;-80
2020/12/19 10:00:23;;;;;;;34.08;11.98;;;3.90;99.90;;;;;;4931988;28;91973;-79
2020/12/19 10:02:53;;;;;;;32.92;11.52;;;4.10;99.90;;;;;;4940759;28;92704;-77
2020/12/19 10:05:19;;;;;;;22.42;10.93;;;4.10;99.90;;;;;;4937650;28;92393;-79
2020/12/19 10:07:44;;;;;;;22.27;11.07;;;4.20;99.90;;;;;;4936472;28;92139;-77
2020/12/19 10:10:10;;;;;;;19.80;11.27;;;4.20;99.90;;;;;;4937437;28;92083;-80
2020/12/19 10:12:36;;;;;;;18.30;10.32;;;4.10;99.90;;;;;;4934867;28;92935;-77
2020/12/19 10:15:04;;;;;;;20.75;10.40;;;3.90;99.90;;;;;;4933189;28;92691;-79
2020/12/19 10:17:30;;;;;;;66.05;12.50;;;3.90;99.90;;;;;;4936387;28;91819;-78
2020/12/19 10:19:55;;;;;;;54.13;12.07;;;3.90;99.90;;;;;;4936926;28;92037;-78
2020/12/19 10:22:21;;;;;;;15.30;9.18;;;4.00;99.90;;;;;;4935236;28;93092;-78
2020/12/19 10:24:47;;;;;;;28.58;11.43;;;4.20;99.90;;;;;;4935035;28;92014;-80
2020/12/19 10:27:12;;;;;;;17.48;10.38;;;4.30;99.90;;;;;;4933735;28;91846;-78
2020/12/19 10:29:38;;;;;;;16.88;10.20;;;4.10;99.90;;;;;;4926591;28;92693;-80
2020/12/19 10:32:12;;;;;;;16.95;9.63;;;4.10;99.90;;;;;;4937468;28;92771;-79
2020/12/19 10:34:39;;;;;;;16.08;9.48;;;4.10;99.90;;;;;;4930243;28;92345;-79
2020/12/19 10:37:05;;;;;;;17.40;10.48;;;3.90;99.90;;;;;;4941077;28;92946;-80
2020/12/19 10:39:31;;;;;;;28.45;10.82;;;3.80;99.90;;;;;;4932938;28;92541;-78
2020/12/19 10:41:56;;;;;;;41.55;11.38;;;3.90;99.90;;;;;;4934931;28;92181;-78
2020/12/19 10:44:22;;;;;;;33.20;10.75;;;3.90;99.90;;;;;;4929911;28;93168;-79
2020/12/19 10:46:48;;;;;;;18.08;11.27;;;4.00;99.90;;;;;;4936885;28;92139;-78
2020/12/19 10:49:14;;;;;;;31.85;10.70;;;4.00;99.90;;;;;;4929632;28;92094;-78
2020/12/19 10:51:39;;;;;;;39.47;10.77;;;4.20;99.90;;;;;;4933478;28;92678;-79
2020/12/19 10:54:05;;;;;;;21.75;10.48;;;4.30;99.90;;;;;;4937278;28;93347;-79
2020/12/19 10:56:31;;;;;;;15.98;9.48;;;4.50;99.90;;;;;;4927539;28;92003;-80
2020/12/19 10:58:56;;;;;;;34.92;10.60;;;4.30;99.90;;;;;;4933105;28;92092;-79
2020/12/19 11:01:22;;;;;;;32.03;10.30;;;4.40;99.90;;;;;;4937148;28;93156;-78
2020/12/19 11:03:48;;;;;;;16.52;9.52;;;4.60;99.90;;;;;;4925684;28;92111;-78
2020/12/19 11:06:21;;;;;;;29.38;10.23;;;4.70;99.90;;;;;;4938304;28;91987;-78
2020/12/19 11:08:48;;;;;;;18.23;9.65;;;4.80;99.90;;;;;;4938178;28;91864;-80
2020/12/19 11:11:13;;;;;;;31.55;10.15;;;4.90;99.90;;;;;;4933393;28;92207;-78
2020/12/19 11:13:40;;;;;;;21.13;10.80;;;4.80;99.90;;;;;;4938531;28;92054;-78
2020/12/19 11:16:06;;;;;;;26.50;10.45;;;4.70;99.90;;;;;;4935708;28;92314;-82
2020/12/19 11:18:31;;;;;;;24.55;10.85;;;4.60;99.90;;;;;;4940051;28;91358;-81
2020/12/19 11:20:57;;;;;;;21.73;10.23;;;4.70;99.90;;;;;;4929603;28;92241;-81
2020/12/19 11:23:23;;;;;;;21.00;11.15;;;4.90;99.90;;;;;;4921443;28;94830;-83
2020/12/19 11:25:52;;;;;;;17.63;9.38;;;5.10;99.90;;;;;;4927118;28;92905;-81
2020/12/19 11:28:18;;;;;;;16.67;9.43;;;5.20;99.90;;;;;;4936207;28;91965;-82
2020/12/19 11:30:44;;;;;;;21.38;10.93;;;5.30;99.90;;;;;;4943929;28;92112;-82
2020/12/19 11:33:10;;;;;;;20.10;10.70;;;5.40;99.90;;;;;;4938356;28;92994;-84
2020/12/19 11:35:35;;;;;;;20.63;10.82;;;5.40;99.90;;;;;;4940595;28;92077;-84
2020/12/19 11:38:01;;;;;;;18.20;9.77;;;5.50;99.90;;;;;;4944686;28;91551;-83
2020/12/19 11:40:26;;;;;;;15.60;9.75;;;5.60;99.90;;;;;;4942745;28;93082;-85
2020/12/19 11:42:52;;;;;;;20.55;10.25;;;5.70;99.90;;;;;;4929611;28;92146;-84
2020/12/19 11:45:18;;;;;;;19.25;11.15;;;5.80;99.90;;;;;;4946043;28;91793;-84
2020/12/19 11:47:44;;;;;;;16.55;10.10;;;5.80;99.90;;;;;;4943010;28;91623;-84
2020/12/19 11:50:09;;;;;;;19.70;10.63;;;5.90;99.90;;;;;;4924037;28;93145;-85
2020/12/19 11:52:35;;;;;;;16.10;10.18;;;5.80;99.90;;;;;;4935079;28;93317;-85
2020/12/19 11:55:01;;;;;;;15.98;9.88;;;5.90;99.90;;;;;;4941055;28;92122;-85
2020/12/19 11:57:26;;;;;;;16.23;9.45;;;5.90;99.90;;;;;;4916183;28;92226;-83
2020/12/19 11:59:52;;;;;;;16.63;10.18;;;5.80;99.90;;;;;;4942842;28;93280;-83
2020/12/19 12:02:18;;;;;;;15.07;9.13;;;5.80;99.90;;;;;;4942884;28;93009;-81
2020/12/19 12:04:43;;;;;;;17.77;9.88;;;5.90;99.90;;;;;;4939789;28;92046;-82
2020/12/19 12:07:09;;;;;;;21.70;10.90;;;5.90;99.90;;;;;;4939940;28;90562;-85
2020/12/19 12:09:35;;;;;;;29.85;12.30;;;5.90;99.90;;;;;;4932189;28;92921;-83
2020/12/19 12:12:04;;;;;;;19.08;11.55;;;5.80;99.90;;;;;;4943317;28;92075;-84
2020/12/19 12:14:30;;;;;;;20.88;11.20;;;5.60;99.90;;;;;;4936174;28;92478;-84
2020/12/19 12:16:56;;;;;;;20.90;11.90;;;5.70;99.90;;;;;;4936788;28;91484;-82
2020/12/19 12:19:21;;;;;;;23.17;12.63;;;5.60;99.90;;;;;;4939424;28;92578;-81
2020/12/19 12:21:47;;;;;;;19.50;10.75;;;5.70;99.90;;;;;;4942956;28;92163;-82
2020/12/19 12:24:13;;;;;;;20.27;11.30;;;5.70;99.90;;;;;;4935342;28;91965;-84
2020/12/19 12:26:40;;;;;;;22.23;12.23;;;5.80;99.90;;;;;;4947392;28;92052;-85
2020/12/19 12:29:06;;;;;;;19.02;11.93;;;5.80;99.90;;;;;;4944049;28;92622;-79
2020/12/19 12:31:33;;;;;;;19.60;10.82;;;5.90;99.90;;;;;;4955251;28;91692;-79
2020/12/19 12:34:01;;;;;;;18.08;10.27;;;5.90;99.90;;;;;;4945154;28;92695;-78
2020/12/19 12:36:29;;;;;;;26.13;11.80;;;5.80;99.90;;;;;;4945790;28;92004;-81
2020/12/19 12:38:55;;;;;;;25.63;13.15;;;5.80;99.90;;;;;;4952702;28;93362;-79
2020/12/19 12:41:21;;;;;;;20.13;12.18;;;5.90;99.90;;;;;;4946835;28;93082;-80
2020/12/19 12:43:46;;;;;;;21.10;11.15;;;5.80;99.90;;;;;;4940981;28;91280;-79
2020/12/19 12:46:14;;;;;;;21.73;11.30;;;5.90;99.90;;;;;;4931837;28;92102;-78
2020/12/19 12:48:40;;;;;;;24.02;12.65;;;5.90;99.90;;;;;;4938562;28;93388;-80
2020/12/19 12:51:10;;;;;;;19.08;11.38;;;5.80;99.90;;;;;;4932526;28;92215;-79
2020/12/19 12:53:36;;;;;;;21.13;11.45;;;5.80;99.90;;;;;;4940158;28;92362;-78
2020/12/19 12:56:03;;;;;;;19.38;11.25;;;5.70;99.90;;;;;;4942759;28;91222;-80
2020/12/19 12:58:29;;;;;;;19.98;11.20;;;5.70;99.90;;;;;;4932253;28;93296;-78
2020/12/19 13:00:54;;;;;;;24.05;13.30;;;5.70;99.90;;;;;;4938758;28;92938;-80
2020/12/19 13:03:20;;;;;;;21.92;13.23;;;5.70;99.90;;;;;;4941288;28;92335;-78
2020/12/19 13:05:46;;;;;;;19.92;12.07;;;5.70;99.90;;;;;;4939427;28;91519;-80
2020/12/19 13:08:11;;;;;;;31.60;17.25;;;5.70;99.90;;;;;;4931427;28;93338;-80
2020/12/19 13:10:40;;;;;;;35.03;17.42;;;5.80;99.90;;;;;;4942648;28;92897;-80
2020/12/19 13:13:06;;;;;;;32.63;16.92;;;5.80;99.90;;;;;;4937997;28;91977;-80
2020/12/19 13:15:32;;;;;;;29.20;14.70;;;5.70;99.90;;;;;;4941244;28;91949;-82
2020/12/19 13:18:00;;;;;;;28.05;14.35;;;5.70;99.90;;;;;;4927230;28;91763;-80
2020/12/19 13:20:27;;;;;;;27.02;13.82;;;5.70;99.90;;;;;;4937940;28;92132;-83
2020/12/19 13:22:53;;;;;;;29.23;15.95;;;5.70;99.90;;;;;;4940315;28;92052;-80
2020/12/19 13:25:19;;;;;;;28.80;15.80;;;5.70;99.90;;;;;;4939905;28;91733;-80
2020/12/19 13:27:44;;;;;;;27.52;15.00;;;5.70;99.90;;;;;;4950568;28;93210;-82
2020/12/19 13:30:10;;;;;;;29.75;17.23;;;5.80;99.90;;;;;;4946821;28;92883;-80
2020/12/19 13:32:36;;;;;;;24.45;13.35;;;5.80;99.90;;;;;;4938248;28;91798;-82
2020/12/19 13:35:01;;;;;;;21.75;11.57;;;5.70;99.90;;;;;;4943810;28;91998;-81
2020/12/19 13:37:27;;;;;;;21.75;12.50;;;5.70;99.90;;;;;;4943141;28;91966;-80
2020/12/19 13:39:53;;;;;;;22.58;11.95;;;5.80;99.90;;;;;;4936473;28;91941;-78
2020/12/19 13:42:19;;;;;;;20.70;11.73;;;5.70;99.90;;;;;;4931704;28;92010;-81
2020/12/19 13:44:44;;;;;;;21.23;11.27;;;5.70;99.90;;;;;;4936930;28;91132;-82
2020/12/19 13:47:10;;;;;;;22.58;12.98;;;5.70;99.90;;;;;;4933984;28;92591;-81
2020/12/19 13:49:36;;;;;;;22.02;12.40;;;5.70;99.90;;;;;;4940667;28;92343;-80
2020/12/19 13:52:03;;;;;;;22.00;13.35;;;5.70;99.90;;;;;;4948024;28;92981;-80
2020/12/19 13:54:28;;;;;;;19.63;12.25;;;5.70;99.90;;;;;;4941546;28;92082;-80
2020/12/19 13:56:55;;;;;;;22.85;12.52;;;5.70;99.90;;;;;;4936104;28;92324;-78
2020/12/19 13:59:20;;;;;;;21.05;12.38;;;5.70;99.90;;;;;;4935026;28;92244;-78
2020/12/19 14:01:46;;;;;;;20.38;11.88;;;5.70;99.90;;;;;;4937352;28;91888;-78
2020/12/19 14:04:12;;;;;;;23.25;12.15;;;5.70;99.90;;;;;;4934146;28;91964;-80
2020/12/19 14:06:38;;;;;;;19.92;11.15;;;5.70;99.90;;;;;;4938133;28;92222;-79
2020/12/19 14:09:04;;;;;;;22.60;12.43;;;5.70;99.90;;;;;;4931155;28;91964;-80
2020/12/19 14:11:35;;;;;;;17.38;10.60;;;5.70;99.90;;;;;;4928412;28;92100;-79
2020/12/19 14:14:05;;;;;;;21.98;11.85;;;5.70;99.90;;;;;;4939952;28;92184;-79
2020/12/19 14:16:35;;;;;;;20.80;10.95;;;5.70;99.90;;;;;;4934658;28;92963;-80
2020/12/19 14:19:03;;;;;;;24.17;12.35;;;5.70;99.90;;;;;;4933859;28;92283;-79
2020/12/19 14:21:28;;;;;;;20.35;12.40;;;5.70;99.90;;;;;;4937982;28;91915;-79
2020/12/19 14:23:54;;;;;;;21.13;11.68;;;5.60;99.90;;;;;;4937990;28;92117;-82
2020/12/19 14:26:24;;;;;;;26.33;14.68;;;5.60;99.90;;;;;;4940448;28;92102;-80
2020/12/19 14:28:50;;;;;;;24.08;11.98;;;5.60;99.90;;;;;;4930166;28;92111;-78
2020/12/19 14:31:17;;;;;;;23.52;13.00;;;5.50;99.90;;;;;;4933153;28;91291;-77
2020/12/19 14:33:43;;;;;;;23.40;13.77;;;5.50;99.90;;;;;;4921854;28;92302;-79
2020/12/19 14:36:17;;;;;;;24.35;14.50;;;5.50;99.90;;;;;;4938913;28;92693;-80
2020/12/19 14:38:43;;;;;;;24.33;12.70;;;5.40;99.90;;;;;;4937560;28;92038;-79
2020/12/19 14:41:10;;;;;;;21.20;11.27;;;5.40;99.90;;;;;;4937518;28;92954;-77
2020/12/19 14:43:37;;;;;;;19.52;11.85;;;5.30;99.90;;;;;;4938026;28;92038;-80
2020/12/19 14:46:02;;;;;;;19.13;11.70;;;5.20;99.90;;;;;;4934344;28;93055;-83
2020/12/19 14:48:28;;;;;;;23.13;12.77;;;5.20;99.90;;;;;;4934950;28;92850;-83
2020/12/19 14:50:54;;;;;;;21.65;12.63;;;5.20;99.90;;;;;;4937242;28;91920;-80
2020/12/19 14:53:20;;;;;;;21.65;12.10;;;5.00;99.90;;;;;;4926253;28;92090;-81
2020/12/19 14:55:45;;;;;;;23.80;12.75;;;4.90;99.90;;;;;;4938179;28;91939;-83
2020/12/19 14:58:11;;;;;;;24.60;13.30;;;4.80;99.90;;;;;;4927877;28;92952;-82
2020/12/19 15:00:36;;;;;;;25.45;14.38;;;4.70;99.90;;;;;;4928256;28;92211;-80
2020/12/19 15:03:03;;;;;;;26.05;13.85;;;4.60;99.90;;;;;;4938399;28;92740;-81
2020/12/19 15:05:28;;;;;;;29.35;14.77;;;4.60;99.90;;;;;;4925816;28;94808;-83
2020/12/19 15:07:54;;;;;;;22.60;12.57;;;4.50;99.90;;;;;;4941135;28;93105;-82
2020/12/19 15:10:20;;;;;;;26.27;14.10;;;4.50;99.90;;;;;;4930352;28;92099;-79
2020/12/19 15:12:46;;;;;;;21.35;11.75;;;4.60;99.90;;;;;;4935047;28;92216;-80
2020/12/19 15:15:12;;;;;;;25.83;12.35;;;4.60;99.90;;;;;;4938356;28;92779;-80
2020/12/19 15:17:38;;;;;;;23.13;12.82;;;4.70;99.90;;;;;;4935001;28;92606;-79
2020/12/19 15:20:04;;;;;;;28.90;14.75;;;4.70;99.90;;;;;;4934414;28;92045;-80
2020/12/19 15:22:29;;;;;;;26.83;13.48;;;4.80;99.90;;;;;;4937241;28;91161;-83
2020/12/19 15:24:55;;;;;;;26.98;13.48;;;4.80;99.90;;;;;;4934537;28;92166;-84
2020/12/19 15:27:21;;;;;;;29.05;15.27;;;4.80;99.90;;;;;;4940742;28;91948;-83
2020/12/19 15:29:46;;;;;;;33.13;15.73;;;4.90;99.90;;;;;;4933260;28;92961;-83
2020/12/19 15:32:12;;;;;;;35.50;17.02;;;4.80;99.90;;;;;;4934234;28;91948;-84
2020/12/19 15:34:38;;;;;;;29.50;15.90;;;4.80;99.90;;;;;;4934210;28;92859;-83
2020/12/19 15:37:04;;;;;;;27.35;13.43;;;4.80;99.90;;;;;;4944292;28;92205;-83
2020/12/19 15:39:29;;;;;;;24.95;12.43;;;4.80;99.90;;;;;;4938982;28;91747;-83
2020/12/19 15:41:55;;;;;;;30.08;14.93;;;4.70;99.90;;;;;;4941599;28;91747;-83
2020/12/19 15:44:21;;;;;;;25.08;12.35;;;4.60;99.90;;;;;;4936801;28;91960;-82
2020/12/19 15:46:47;;;;;;;29.55;13.77;;;4.50;99.90;;;;;;4936955;28;92154;-82
2020/12/19 15:49:13;;;;;;;24.52;12.98;;;4.40;99.90;;;;;;4944676;28;91999;-82
2020/12/19 15:51:39;;;;;;;29.05;13.43;;;4.40;99.90;;;;;;4948418;28;91762;-84
2020/12/19 15:54:05;;;;;;;35.00;14.85;;;4.40;99.90;;;;;;4939574;28;92894;-83
2020/12/19 15:56:30;;;;;;;25.85;13.00;;;4.40;99.90;;;;;;4942007;28;93781;-83
2020/12/19 15:58:56;;;;;;;30.35;14.15;;;4.40;99.90;;;;;;4935199;28;92032;-83
2020/12/19 16:01:22;;;;;;;32.72;15.20;;;4.50;99.90;;;;;;4939064;28;92040;-84
2020/12/19 16:03:48;;;;;;;38.60;14.80;;;4.50;99.90;;;;;;4938432;28;91664;-83
2020/12/19 16:06:20;;;;;;;33.47;15.38;;;4.60;99.90;;;;;;4937842;28;92010;-84
2020/12/19 16:08:47;;;;;;;26.25;13.27;;;4.60;99.90;;;;;;4941915;28;91946;-81
2020/12/19 16:11:12;;;;;;;35.65;14.80;;;4.60;99.90;;;;;;4934636;28;91285;-82
2020/12/19 16:13:40;;;;;;;32.13;14.75;;;4.60;99.90;;;;;;4934214;28;92049;-80
2020/12/19 16:16:11;;;;;;;28.35;13.90;;;4.50;99.90;;;;;;4933141;28;92499;-82
2020/12/19 16:18:37;;;;;;;33.63;15.52;;;4.40;99.90;;;;;;4933650;28;92875;-82
2020/12/19 16:21:03;;;;;;;31.42;15.43;;;4.40;99.90;;;;;;4936564;28;91952;-82
2020/12/19 16:23:29;;;;;;;31.88;14.57;;;4.40;99.90;;;;;;4933479;28;92714;-82
2020/12/19 16:25:55;;;;;;;30.35;14.90;;;4.50;99.90;;;;;;4944287;28;91931;-78
2020/12/19 16:28:21;;;;;;;43.05;15.65;;;4.50;99.90;;;;;;4941131;28;92109;-79
2020/12/19 16:30:46;;;;;;;41.63;15.80;;;4.40;99.90;;;;;;4938626;28;92692;-83
2020/12/19 16:33:13;;;;;;;31.88;14.70;;;4.40;99.90;;;;;;4933865;28;93223;-83
2020/12/19 16:35:40;;;;;;;39.05;14.23;;;4.30;99.90;;;;;;4936447;28;91362;-79
2020/12/19 16:38:08;;;;;;;39.92;14.18;;;4.20;99.90;;;;;;4958116;28;91638;-82
2020/12/19 16:40:46;;;;;;;45.30;15.07;;;4.20;99.90;;;;;;4959598;28;91699;-84
2020/12/19 16:43:20;;;;;;;29.00;13.77;;;4.10;99.90;;;;;;4931042;28;93183;-83